EST,Max TemperatureF,Mean TemperatureF,Min TemperatureF,Max Dew PointF,MeanDew PointF,Min DewpointF,Max Humidity, Mean Humidity, Min Humidity, Max Sea Level PressureIn, Mean Sea Level PressureIn, Min Sea Level PressureIn, Max VisibilityMiles, Mean VisibilityMiles, Min VisibilityMiles, Max Wind SpeedMPH, Mean Wind SpeedMPH, Max Gust SpeedMPH,PrecipitationIn, CloudCover, Events, WindDirDegrees
2013-12-1,57,48,39,39,30,22,86,54,37,30.37,30.20,30.02,10,10,9,6,1,,0.00,4,,271
2013-12-2,59,48,37,47,40,34,89,77,49,30.00,29.92,29.83,10,7,0,8,3,,0.00,6,Fog-Rain,261
2013-12-3,55,53,51,52,50,46,89,87,77,29.96,29.91,29.87,5,1,0,5,0,,0.32,8,Fog-Rain,33
2013-12-4,62,58,55,57,55,52,94,88,82,30.08,30.02,29.94,3,1,0,5,2,,0.15,8,Fog-Rain,13
2013-12-5,70,65,60,66,62,57,94,88,82,30.11,30.05,30.01,8,3,0,9,1,,0.36,8,Fog-Rain,180
2013-12-6,77,72,64,65,62,60,87,74,60,30.06,30.01,29.97,10,9,2,14,7,26,0.20,7,Rain,221
2013-12-7,64,58,51,61,51,41,88,74,52,30.36,30.20,30.01,10,10,5,10,4,16,0.04,8,Rain,100
2013-12-8,50,44,39,43,38,35,87,82,74,30.37,30.32,30.26,10,6,2,13,9,18,0.16,8,Rain,73
2013-12-9,46,42,39,45,39,35,93,87,81,30.28,30.16,30.05,10,5,0,7,2,,0.75,8,Fog-Rain,103
2013-12-10,59,49,37,50,39,12,93,74,22,30.33,30.03,29.93,10,6,0,18,3,28,0.17,5,Fog-Rain,264
2013-12-11,53,42,30,31,24,15,82,55,27,30.46,30.37,30.32,10,10,9,7,1,,0.00,0,,253
2013-12-12,53,42,30,29,21,14,86,50,22,30.42,30.35,30.30,10,9,1,6,2,,0.00,0,,73
2013-12-13,52,40,28,33,25,18,87,61,26,30.38,30.32,30.24,10,8,0,6,1,,0.00,0,Fog,17
2013-12-14,48,45,42,45,39,26,93,79,46,30.22,29.96,29.82,10,4,0,12,5,,1.27,7,Fog-Rain,35
2013-12-15,55,46,35,45,34,22,93,65,29,30.14,29.91,29.78,10,7,0,14,7,23,0.01,2,Fog-Rain,268
2013-12-16,62,46,30,28,25,20,79,50,20,30.20,30.16,30.11,10,10,10,15,5,25,0.00,0,,253
2013-12-17,66,52,39,32,28,17,63,43,24,30.17,30.09,30.00,10,10,10,17,9,29,0.00,0,,249
2013-12-18,55,46,37,29,14,4,62,30,13,30.30,30.24,30.12,10,10,10,16,7,29,0.00,0,,280
2013-12-19,63,48,34,33,26,15,85,49,16,30.35,30.28,30.23,10,10,7,7,1,,0.00,0,,208
2013-12-20,55,47,39,45,40,34,86,72,55,30.26,30.21,30.17,10,10,9,6,2,,0.00,5,,359
2013-12-21,64,58,51,61,52,45,88,82,74,30.15,30.07,30.00,10,7,1,6,1,,0.05,8,Rain,15
2013-12-22,69,64,60,63,59,57,94,87,81,30.08,30.03,29.96,10,4,0,14,4,24,1.64,8,Fog-Rain,203
2013-12-23,62,54,46,57,51,41,90,82,60,30.17,30.08,30.02,10,7,1,12,2,,0.46,5,Rain,241
2013-12-24,48,40,33,40,24,9,82,53,21,30.42,30.28,30.17,10,10,10,15,5,21,0.00,2,,306
2013-12-25,43,36,28,18,12,7,56,41,23,30.54,30.44,30.39,10,10,10,8,4,25,0.00,1,,59
2013-12-26,55,42,30,32,23,13,72,51,29,30.38,30.32,30.25,10,10,10,5,1,,0.00,0,,343
2013-12-27,52,44,36,31,23,17,79,48,27,30.48,30.41,30.34,10,10,10,6,3,,0.00,0,,12
2013-12-28,48,39,30,38,30,23,89,77,36,30.42,30.33,30.07,10,5,0,9,1,,0.42,4,Fog-Rain-Snow,31
2013-12-29,63,52,42,48,41,36,93,78,50,30.04,29.90,29.81,10,6,1,13,7,20,0.70,5,Rain,299
2013-12-30,55,48,42,39,36,33,73,63,49,30.15,30.07,29.98,10,10,10,13,6,17,0.00,2,,250
2013-12-31,53,46,39,35,27,19,71,52,28,30.37,30.28,30.14,10,10,10,10,6,,0.00,0,,267